sensor_id;sensor_type;location;lat;lon;timestamp;temperature;humidity
14682;DHT22;7429;52.498;13.480;2023-08-21T00:02:52;22.50;99.90
14682;DHT22;7429;52.498;13.480;2023-08-21T00:05:56;22.50;99.90
14682;DHT22;7429;52.498;13.480;2023-08-21T00:09:00;22.50;99.90
14682;DHT22;7429;52.498;13.480;2023-08-21T00:12:04;22.50;99.90
14682;DHT22;7429;52.498;13.480;2023-08-21T00:15:10;22.40;99.90
14682;DHT22;7429;52.498;13.480;2023-08-21T00:18:13;22.30;99.90
14682;DHT22;7429;52.498;13.480;2023-08-21T00:21:16;22.30;99.90
14682;DHT22;7429;52.498;13.480;2023-08-21T00:24:20;22.30;99.90
14682;DHT22;7429;52.498;13.480;2023-08-21T00:27:23;22.30;99.90
14682;DHT22;7429;52.498;13.480;2023-08-21T00:30:27;22.20;99.90
14682;DHT22;7429;52.498;13.480;2023-08-21T00:33:31;22.10;99.90
14682;DHT22;7429;52.498;13.480;2023-08-21T00:36:34;22.10;99.90
14682;DHT22;7429;52.498;13.480;2023-08-21T00:39:37;22.10;99.90
14682;DHT22;7429;52.498;13.480;2023-08-21T00:42:40;22.00;99.90
14682;DHT22;7429;52.498;13.480;2023-08-21T00:45:46;22.00;99.90
14682;DHT22;7429;52.498;13.480;2023-08-21T00:48:50;22.00;99.90
14682;DHT22;7429;52.498;13.480;2023-08-21T00:51:53;21.90;99.90
14682;DHT22;7429;52.498;13.480;2023-08-21T00:54:57;21.90;99.90
14682;DHT22;7429;52.498;13.480;2023-08-21T00:58:02;21.80;99.90
14682;DHT22;7429;52.498;13.480;2023-08-21T01:01:07;21.80;99.90
14682;DHT22;7429;52.498;13.480;2023-08-21T01:04:11;21.80;99.90
14682;DHT22;7429;52.498;13.480;2023-08-21T01:07:14;21.80;99.90
14682;DHT22;7429;52.498;13.480;2023-08-21T01:10:22;21.80;99.90
14682;DHT22;7429;52.498;13.480;2023-08-21T01:13:38;21.80;99.90
14682;DHT22;7429;52.498;13.480;2023-08-21T01:16:53;21.80;99.90
14682;DHT22;7429;52.498;13.480;2023-08-21T01:19:58;21.90;99.90
14682;DHT22;7429;52.498;13.480;2023-08-21T01:23:04;21.90;99.90
14682;DHT22;7429;52.498;13.480;2023-08-21T01:26:10;21.90;99.90
14682;DHT22;7429;52.498;13.480;2023-08-21T01:29:13;21.90;99.90
14682;DHT22;7429;52.498;13.480;2023-08-21T01:32:21;22.00;99.90
14682;DHT22;7429;52.498;13.480;2023-08-21T01:35:28;22.00;99.90
14682;DHT22;7429;52.498;13.480;2023-08-21T01:38:33;22.00;99.90
14682;DHT22;7429;52.498;13.480;2023-08-21T01:41:38;22.00;99.90
14682;DHT22;7429;52.498;13.480;2023-08-21T01:44:44;22.00;99.90
14682;DHT22;7429;52.498;13.480;2023-08-21T01:47:48;22.00;99.90
14682;DHT22;7429;52.498;13.480;2023-08-21T01:50:51;21.90;99.90
14682;DHT22;7429;52.498;13.480;2023-08-21T01:53:56;22.00;99.90
14682;DHT22;7429;52.498;13.480;2023-08-21T01:57:05;21.90;99.90
14682;DHT22;7429;52.498;13.480;2023-08-21T02:00:12;21.90;99.90
14682;DHT22;7429;52.498;13.480;2023-08-21T02:03:16;21.80;99.90
14682;DHT22;7429;52.498;13.480;2023-08-21T02:06:19;21.80;99.90
14682;DHT22;7429;52.498;13.480;2023-08-21T02:09:23;21.80;99.90
14682;DHT22;7429;52.498;13.480;2023-08-21T02:12:27;21.80;99.90
14682;DHT22;7429;52.498;13.480;2023-08-21T02:15:31;21.70;99.90
14682;DHT22;7429;52.498;13.480;2023-08-21T02:18:34;21.70;99.90
14682;DHT22;7429;52.498;13.480;2023-08-21T02:21:37;21.70;99.90
14682;DHT22;7429;52.498;13.480;2023-08-21T02:24:40;21.70;99.90
14682;DHT22;7429;52.498;13.480;2023-08-21T02:27:45;21.70;99.90
14682;DHT22;7429;52.498;13.480;2023-08-21T02:30:48;21.70;99.90
14682;DHT22;7429;52.498;13.480;2023-08-21T02:33:51;21.70;99.90
14682;DHT22;7429;52.498;13.480;2023-08-21T02:36:54;21.70;99.90
14682;DHT22;7429;52.498;13.480;2023-08-21T02:39:57;21.70;99.90
14682;DHT22;7429;52.498;13.480;2023-08-21T02:43:03;21.70;99.90
14682;DHT22;7429;52.498;13.480;2023-08-21T02:46:06;21.70;99.90
14682;DHT22;7429;52.498;13.480;2023-08-21T02:49:09;21.70;99.90
14682;DHT22;7429;52.498;13.480;2023-08-21T02:52:14;21.70;99.90
14682;DHT22;7429;52.498;13.480;2023-08-21T02:55:17;21.80;99.90
14682;DHT22;7429;52.498;13.480;2023-08-21T02:58:21;21.80;99.90
14682;DHT22;7429;52.498;13.480;2023-08-21T03:01:25;21.90;99.90
14682;DHT22;7429;52.498;13.480;2023-08-21T03:04:28;21.90;99.90
14682;DHT22;7429;52.498;13.480;2023-08-21T03:07:31;21.90;99.90
14682;DHT22;7429;52.498;13.480;2023-08-21T03:10:34;21.90;99.90
14682;DHT22;7429;52.498;13.480;2023-08-21T03:13:40;21.90;99.90
14682;DHT22;7429;52.498;13.480;2023-08-21T03:16:43;21.80;99.90
14682;DHT22;7429;52.498;13.480;2023-08-21T03:19:46;21.90;99.90
14682;DHT22;7429;52.498;13.480;2023-08-21T03:22:50;21.90;99.90
14682;DHT22;7429;52.498;13.480;2023-08-21T03:25:54;21.90;99.90
14682;DHT22;7429;52.498;13.480;2023-08-21T03:28:58;21.90;99.90
14682;DHT22;7429;52.498;13.480;2023-08-21T03:32:02;22.00;99.90
14682;DHT22;7429;52.498;13.480;2023-08-21T03:35:06;22.00;99.90
14682;DHT22;7429;52.498;13.480;2023-08-21T03:38:10;21.90;99.90
14682;DHT22;7429;52.498;13.480;2023-08-21T03:41:18;22.00;99.90
14682;DHT22;7429;52.498;13.480;2023-08-21T03:44:23;22.00;99.90
14682;DHT22;7429;52.498;13.480;2023-08-21T03:47:26;22.00;99.90
14682;DHT22;7429;52.498;13.480;2023-08-21T03:50:35;21.90;99.90
14682;DHT22;7429;52.498;13.480;2023-08-21T03:53:38;21.90;99.90
14682;DHT22;7429;52.498;13.480;2023-08-21T03:56:41;21.90;99.90
14682;DHT22;7429;52.498;13.480;2023-08-21T03:59:46;21.80;99.90
14682;DHT22;7429;52.498;13.480;2023-08-21T04:02:52;21.90;99.90
14682;DHT22;7429;52.498;13.480;2023-08-21T04:05:55;21.90;99.90
14682;DHT22;7429;52.498;13.480;2023-08-21T04:08:59;21.90;99.90
14682;DHT22;7429;52.498;13.480;2023-08-21T04:12:02;21.90;99.90
14682;DHT22;7429;52.498;13.480;2023-08-21T04:15:08;21.90;99.90
14682;DHT22;7429;52.498;13.480;2023-08-21T04:18:12;22.00;99.90
14682;DHT22;7429;52.498;13.480;2023-08-21T04:21:29;22.00;99.90
14682;DHT22;7429;52.498;13.480;2023-08-21T04:24:32;22.00;99.90
14682;DHT22;7429;52.498;13.480;2023-08-21T04:27:35;22.00;99.90
14682;DHT22;7429;52.498;13.480;2023-08-21T04:30:41;22.00;99.90
14682;DHT22;7429;52.498;13.480;2023-08-21T04:33:44;22.00;99.90
14682;DHT22;7429;52.498;13.480;2023-08-21T04:36:47;22.00;99.90
14682;DHT22;7429;52.498;13.480;2023-08-21T04:39:52;22.00;99.90
14682;DHT22;7429;52.498;13.480;2023-08-21T04:42:55;22.00;99.90
14682;DHT22;7429;52.498;13.480;2023-08-21T04:46:00;22.10;99.90
14682;DHT22;7429;52.498;13.480;2023-08-21T04:49:04;22.10;99.90
14682;DHT22;7429;52.498;13.480;2023-08-21T04:52:07;22.10;99.90
14682;DHT22;7429;52.498;13.480;2023-08-21T04:55:11;22.10;99.90
14682;DHT22;7429;52.498;13.480;2023-08-21T04:58:14;22.10;99.90
14682;DHT22;7429;52.498;13.480;2023-08-21T05:01:20;22.10;99.90
14682;DHT22;7429;52.498;13.480;2023-08-21T05:04:23;22.10;99.90
14682;DHT22;7429;52.498;13.480;2023-08-21T05:07:30;22.10;99.90
14682;DHT22;7429;52.498;13.480;2023-08-21T05:10:34;22.20;99.90
14682;DHT22;7429;52.498;13.480;2023-08-21T05:13:39;22.30;99.90
14682;DHT22;7429;52.498;13.480;2023-08-21T05:16:46;22.30;99.90
14682;DHT22;7429;52.498;13.480;2023-08-21T05:19:53;22.30;99.90
14682;DHT22;7429;52.498;13.480;2023-08-21T05:22:57;22.30;99.90
14682;DHT22;7429;52.498;13.480;2023-08-21T05:26:00;22.40;99.90
14682;DHT22;7429;52.498;13.480;2023-08-21T05:29:03;22.40;99.90
14682;DHT22;7429;52.498;13.480;2023-08-21T05:32:08;22.40;99.90
14682;DHT22;7429;52.498;13.480;2023-08-21T05:35:11;22.50;99.90
14682;DHT22;7429;52.498;13.480;2023-08-21T05:38:15;22.50;99.90
14682;DHT22;7429;52.498;13.480;2023-08-21T05:41:19;22.60;99.90
14682;DHT22;7429;52.498;13.480;2023-08-21T05:44:22;22.60;99.90
14682;DHT22;7429;52.498;13.480;2023-08-21T05:47:27;22.60;99.90
14682;DHT22;7429;52.498;13.480;2023-08-21T05:50:30;22.70;99.90
14682;DHT22;7429;52.498;13.480;2023-08-21T05:53:33;22.70;99.90
14682;DHT22;7429;52.498;13.480;2023-08-21T05:56:37;22.80;99.90
14682;DHT22;7429;52.498;13.480;2023-08-21T05:59:43;22.90;99.90
14682;DHT22;7429;52.498;13.480;2023-08-21T06:02:49;22.90;99.90
14682;DHT22;7429;52.498;13.480;2023-08-21T06:06:39;22.90;99.90
14682;DHT22;7429;52.498;13.480;2023-08-21T06:09:46;22.90;99.90
14682;DHT22;7429;52.498;13.480;2023-08-21T06:12:50;22.90;99.90
14682;DHT22;7429;52.498;13.480;2023-08-21T06:15:54;23.00;99.90
14682;DHT22;7429;52.498;13.480;2023-08-21T06:19:04;23.10;99.90
14682;DHT22;7429;52.498;13.480;2023-08-21T06:22:07;23.20;99.90
14682;DHT22;7429;52.498;13.480;2023-08-21T06:25:17;23.30;99.90
14682;DHT22;7429;52.498;13.480;2023-08-21T06:28:23;23.30;99.90
14682;DHT22;7429;52.498;13.480;2023-08-21T06:31:28;23.40;99.90
14682;DHT22;7429;52.498;13.480;2023-08-21T06:34:33;23.40;99.90
14682;DHT22;7429;52.498;13.480;2023-08-21T06:37:37;23.40;99.90
14682;DHT22;7429;52.498;13.480;2023-08-21T06:40:40;23.50;99.90
14682;DHT22;7429;52.498;13.480;2023-08-21T06:43:45;23.50;99.90
14682;DHT22;7429;52.498;13.480;2023-08-21T06:46:54;23.60;99.90
14682;DHT22;7429;52.498;13.480;2023-08-21T06:49:59;23.70;99.90
14682;DHT22;7429;52.498;13.480;2023-08-21T06:53:05;23.80;99.90
14682;DHT22;7429;52.498;13.480;2023-08-21T06:56:09;23.90;99.90
14682;DHT22;7429;52.498;13.480;2023-08-21T06:59:19;23.90;99.90
14682;DHT22;7429;52.498;13.480;2023-08-21T07:02:23;24.00;99.90
14682;DHT22;7429;52.498;13.480;2023-08-21T07:05:30;24.10;99.90
14682;DHT22;7429;52.498;13.480;2023-08-21T07:08:34;24.20;99.90
14682;DHT22;7429;52.498;13.480;2023-08-21T07:11:40;24.20;99.90
14682;DHT22;7429;52.498;13.480;2023-08-21T07:14:55;24.20;99.90
14682;DHT22;7429;52.498;13.480;2023-08-21T07:18:02;24.20;99.90
14682;DHT22;7429;52.498;13.480;2023-08-21T07:21:09;24.20;99.90
14682;DHT22;7429;52.498;13.480;2023-08-21T07:24:33;24.30;99.90
14682;DHT22;7429;52.498;13.480;2023-08-21T07:27:38;24.40;99.90
14682;DHT22;7429;52.498;13.480;2023-08-21T07:30:43;24.40;99.90
14682;DHT22;7429;52.498;13.480;2023-08-21T07:33:49;24.40;99.90
14682;DHT22;7429;52.498;13.480;2023-08-21T07:36:54;24.50;99.90
14682;DHT22;7429;52.498;13.480;2023-08-21T07:40:01;24.40;99.90
14682;DHT22;7429;52.498;13.480;2023-08-21T07:43:10;24.60;99.90
14682;DHT22;7429;52.498;13.480;2023-08-21T07:46:14;24.60;99.90
14682;DHT22;7429;52.498;13.480;2023-08-21T07:49:21;24.70;99.90
14682;DHT22;7429;52.498;13.480;2023-08-21T07:52:26;24.70;99.90
14682;DHT22;7429;52.498;13.480;2023-08-21T07:55:32;24.70;99.90
14682;DHT22;7429;52.498;13.480;2023-08-21T07:58:38;24.80;99.90
14682;DHT22;7429;52.498;13.480;2023-08-21T08:01:42;24.80;99.90
14682;DHT22;7429;52.498;13.480;2023-08-21T08:04:47;24.70;99.90
14682;DHT22;7429;52.498;13.480;2023-08-21T08:07:56;24.70;99.90
14682;DHT22;7429;52.498;13.480;2023-08-21T08:11:02;24.70;99.90
14682;DHT22;7429;52.498;13.480;2023-08-21T08:14:06;24.70;99.90
14682;DHT22;7429;52.498;13.480;2023-08-21T08:17:13;24.60;99.90
14682;DHT22;7429;52.498;13.480;2023-08-21T08:20:23;24.80;99.90
14682;DHT22;7429;52.498;13.480;2023-08-21T08:23:29;24.90;99.90
14682;DHT22;7429;52.498;13.480;2023-08-21T08:26:42;24.90;99.90
14682;DHT22;7429;52.498;13.480;2023-08-21T08:29:47;25.10;99.90
14682;DHT22;7429;52.498;13.480;2023-08-21T08:32:52;25.10;99.90
14682;DHT22;7429;52.498;13.480;2023-08-21T08:35:56;25.10;99.90
14682;DHT22;7429;52.498;13.480;2023-08-21T08:39:01;25.10;99.90
14682;DHT22;7429;52.498;13.480;2023-08-21T08:42:11;25.20;99.90
14682;DHT22;7429;52.498;13.480;2023-08-21T08:45:32;25.20;99.90
14682;DHT22;7429;52.498;13.480;2023-08-21T08:48:52;25.20;99.90
14682;DHT22;7429;52.498;13.480;2023-08-21T08:51:58;25.20;99.90
14682;DHT22;7429;52.498;13.480;2023-08-21T08:55:09;25.30;99.90
14682;DHT22;7429;52.498;13.480;2023-08-21T08:58:13;25.30;99.90
14682;DHT22;7429;52.498;13.480;2023-08-21T09:01:17;25.20;99.90
14682;DHT22;7429;52.498;13.480;2023-08-21T09:04:27;25.10;99.90
14682;DHT22;7429;52.498;13.480;2023-08-21T09:07:45;25.10;99.90
14682;DHT22;7429;52.498;13.480;2023-08-21T09:10:55;25.30;99.90
14682;DHT22;7429;52.498;13.480;2023-08-21T09:14:06;25.60;99.90
14682;DHT22;7429;52.498;13.480;2023-08-21T09:17:13;25.80;99.90
14682;DHT22;7429;52.498;13.480;2023-08-21T09:20:22;25.80;99.90
14682;DHT22;7429;52.498;13.480;2023-08-21T09:23:28;26.00;99.90
14682;DHT22;7429;52.498;13.480;2023-08-21T09:26:40;26.20;99.90
14682;DHT22;7429;52.498;13.480;2023-08-21T09:29:48;26.50;99.90
14682;DHT22;7429;52.498;13.480;2023-08-21T09:33:05;26.70;99.90
14682;DHT22;7429;52.498;13.480;2023-08-21T09:36:29;26.80;99.90
14682;DHT22;7429;52.498;13.480;2023-08-21T09:43:29;27.00;99.90
14682;DHT22;7429;52.498;13.480;2023-08-21T09:46:40;27.20;99.90
14682;DHT22;7429;52.498;13.480;2023-08-21T09:49:53;27.10;99.90
14682;DHT22;7429;52.498;13.480;2023-08-21T09:52:59;27.20;99.90
14682;DHT22;7429;52.498;13.480;2023-08-21T09:56:22;27.20;99.90
14682;DHT22;7429;52.498;13.480;2023-08-21T09:59:30;27.40;99.90
14682;DHT22;7429;52.498;13.480;2023-08-21T10:02:36;27.60;99.90
14682;DHT22;7429;52.498;13.480;2023-08-21T10:05:47;27.80;99.90
14682;DHT22;7429;52.498;13.480;2023-08-21T10:08:55;27.90;99.90
14682;DHT22;7429;52.498;13.480;2023-08-21T10:12:05;27.80;99.90
14682;DHT22;7429;52.498;13.480;2023-08-21T10:19:14;27.60;99.90
14682;DHT22;7429;52.498;13.480;2023-08-21T10:22:48;27.60;99.90
14682;DHT22;7429;52.498;13.480;2023-08-21T10:26:01;27.40;99.90
14682;DHT22;7429;52.498;13.480;2023-08-21T10:29:09;27.30;99.90
14682;DHT22;7429;52.498;13.480;2023-08-21T10:32:22;27.50;99.90
14682;DHT22;7429;52.498;13.480;2023-08-21T10:35:29;27.70;99.90
14682;DHT22;7429;52.498;13.480;2023-08-21T10:39:00;27.80;99.90
14682;DHT22;7429;52.498;13.480;2023-08-21T10:42:17;27.80;99.90
14682;DHT22;7429;52.498;13.480;2023-08-21T10:45:57;27.70;99.90
14682;DHT22;7429;52.498;13.480;2023-08-21T10:53:36;27.50;99.90
14682;DHT22;7429;52.498;13.480;2023-08-21T10:56:52;27.30;99.90
14682;DHT22;7429;52.498;13.480;2023-08-21T11:00:19;27.20;99.90
14682;DHT22;7429;52.498;13.480;2023-08-21T11:03:32;27.20;99.90
14682;DHT22;7429;52.498;13.480;2023-08-21T11:07:18;27.60;99.90
14682;DHT22;7429;52.498;13.480;2023-08-21T11:10:49;28.00;99.90
14682;DHT22;7429;52.498;13.480;2023-08-21T11:13:59;27.80;99.90
14682;DHT22;7429;52.498;13.480;2023-08-21T11:17:09;27.90;99.90
14682;DHT22;7429;52.498;13.480;2023-08-21T11:20:21;28.10;99.90
14682;DHT22;7429;52.498;13.480;2023-08-21T11:23:32;28.10;99.90
14682;DHT22;7429;52.498;13.480;2023-08-21T11:26:42;28.20;99.90
14682;DHT22;7429;52.498;13.480;2023-08-21T11:29:47;28.30;99.90
14682;DHT22;7429;52.498;13.480;2023-08-21T11:33:13;28.20;99.90
14682;DHT22;7429;52.498;13.480;2023-08-21T11:36:21;27.90;99.90
14682;DHT22;7429;52.498;13.480;2023-08-21T11:39:26;27.70;99.90
14682;DHT22;7429;52.498;13.480;2023-08-21T11:42:41;27.50;99.90
14682;DHT22;7429;52.498;13.480;2023-08-21T11:45:45;27.40;99.90
14682;DHT22;7429;52.498;13.480;2023-08-21T11:49:04;27.50;99.90
14682;DHT22;7429;52.498;13.480;2023-08-21T11:52:12;27.80;99.90
14682;DHT22;7429;52.498;13.480;2023-08-21T11:55:25;28.20;99.90
14682;DHT22;7429;52.498;13.480;2023-08-21T11:58:33;28.70;99.90
14682;DHT22;7429;52.498;13.480;2023-08-21T12:01:50;28.80;99.90
14682;DHT22;7429;52.498;13.480;2023-08-21T12:05:02;28.70;99.90
14682;DHT22;7429;52.498;13.480;2023-08-21T12:08:13;28.70;99.90
14682;DHT22;7429;52.498;13.480;2023-08-21T12:11:28;28.60;99.90
14682;DHT22;7429;52.498;13.480;2023-08-21T12:14:54;28.60;99.90
14682;DHT22;7429;52.498;13.480;2023-08-21T12:18:05;28.30;99.90
14682;DHT22;7429;52.498;13.480;2023-08-21T12:21:18;28.30;99.90
14682;DHT22;7429;52.498;13.480;2023-08-21T12:24:24;28.10;99.90
14682;DHT22;7429;52.498;13.480;2023-08-21T12:27:45;27.90;99.90
14682;DHT22;7429;52.498;13.480;2023-08-21T12:31:18;27.60;99.90
14682;DHT22;7429;52.498;13.480;2023-08-21T12:35:00;27.50;99.90
14682;DHT22;7429;52.498;13.480;2023-08-21T12:38:11;27.40;99.90
14682;DHT22;7429;52.498;13.480;2023-08-21T12:41:18;27.40;99.90
14682;DHT22;7429;52.498;13.480;2023-08-21T12:44:34;27.50;99.90
14682;DHT22;7429;52.498;13.480;2023-08-21T12:47:44;27.90;99.90
14682;DHT22;7429;52.498;13.480;2023-08-21T12:51:06;28.40;99.90
14682;DHT22;7429;52.498;13.480;2023-08-21T12:54:32;28.50;99.90
14682;DHT22;7429;52.498;13.480;2023-08-21T12:57:54;28.90;99.90
14682;DHT22;7429;52.498;13.480;2023-08-21T13:01:08;29.30;99.90
14682;DHT22;7429;52.498;13.480;2023-08-21T13:04:23;29.30;99.90
14682;DHT22;7429;52.498;13.480;2023-08-21T13:07:46;29.20;99.90
14682;DHT22;7429;52.498;13.480;2023-08-21T13:10:55;28.80;99.90
14682;DHT22;7429;52.498;13.480;2023-08-21T13:13:59;28.60;99.90
14682;DHT22;7429;52.498;13.480;2023-08-21T13:17:07;28.60;99.90
14682;DHT22;7429;52.498;13.480;2023-08-21T13:20:17;28.80;99.90
14682;DHT22;7429;52.498;13.480;2023-08-21T13:23:31;29.10;99.90
14682;DHT22;7429;52.498;13.480;2023-08-21T13:26:54;29.20;99.90
14682;DHT22;7429;52.498;13.480;2023-08-21T13:30:14;29.00;99.90
14682;DHT22;7429;52.498;13.480;2023-08-21T13:33:22;29.20;99.90
14682;DHT22;7429;52.498;13.480;2023-08-21T13:36:58;29.30;99.90
14682;DHT22;7429;52.498;13.480;2023-08-21T13:40:28;29.60;99.90
14682;DHT22;7429;52.498;13.480;2023-08-21T13:43:34;29.80;99.90
14682;DHT22;7429;52.498;13.480;2023-08-21T13:46:52;30.20;99.90
14682;DHT22;7429;52.498;13.480;2023-08-21T13:50:26;30.10;99.90
14682;DHT22;7429;52.498;13.480;2023-08-21T13:53:43;30.00;99.90
14682;DHT22;7429;52.498;13.480;2023-08-21T13:57:18;30.10;99.90
14682;DHT22;7429;52.498;13.480;2023-08-21T14:00:26;30.20;99.90
14682;DHT22;7429;52.498;13.480;2023-08-21T14:03:45;30.20;99.90
14682;DHT22;7429;52.498;13.480;2023-08-21T14:06:54;30.20;99.90
14682;DHT22;7429;52.498;13.480;2023-08-21T14:10:24;30.30;99.90
14682;DHT22;7429;52.498;13.480;2023-08-21T14:14:01;30.60;99.90
14682;DHT22;7429;52.498;13.480;2023-08-21T14:18:59;30.80;99.90
14682;DHT22;7429;52.498;13.480;2023-08-21T14:22:14;31.40;99.90
14682;DHT22;7429;52.498;13.480;2023-08-21T14:30:31;31.70;99.90
14682;DHT22;7429;52.498;13.480;2023-08-21T14:38:07;31.70;99.90
14682;DHT22;7429;52.498;13.480;2023-08-21T14:42:30;31.40;99.90
14682;DHT22;7429;52.498;13.480;2023-08-21T14:46:11;31.30;99.90
14682;DHT22;7429;52.498;13.480;2023-08-21T14:49:43;31.10;99.90
14682;DHT22;7429;52.498;13.480;2023-08-21T14:52:54;30.80;99.90
14682;DHT22;7429;52.498;13.480;2023-08-21T14:56:32;31.00;99.90
14682;DHT22;7429;52.498;13.480;2023-08-21T15:04:47;31.40;99.90
14682;DHT22;7429;52.498;13.480;2023-08-21T15:08:10;31.40;99.90
14682;DHT22;7429;52.498;13.480;2023-08-21T15:18:09;31.40;99.90
14682;DHT22;7429;52.498;13.480;2023-08-21T15:21:28;31.30;99.90
14682;DHT22;7429;52.498;13.480;2023-08-21T15:25:51;31.20;99.90
14682;DHT22;7429;52.498;13.480;2023-08-21T15:29:21;31.20;99.90
14682;DHT22;7429;52.498;13.480;2023-08-21T15:32:45;31.60;99.90
14682;DHT22;7429;52.498;13.480;2023-08-21T15:36:02;31.70;99.90
14682;DHT22;7429;52.498;13.480;2023-08-21T15:40:18;31.40;99.90
14682;DHT22;7429;52.498;13.480;2023-08-21T15:43:48;31.10;99.90
14682;DHT22;7429;52.498;13.480;2023-08-21T15:56:53;30.50;99.90
14682;DHT22;7429;52.498;13.480;2023-08-21T16:05:51;29.80;99.90
14682;DHT22;7429;52.498;13.480;2023-08-21T16:10:00;29.70;99.90
14682;DHT22;7429;52.498;13.480;2023-08-21T16:13:35;29.40;99.90
14682;DHT22;7429;52.498;13.480;2023-08-21T16:18:13;29.10;99.90
14682;DHT22;7429;52.498;13.480;2023-08-21T16:23:17;28.80;99.90
14682;DHT22;7429;52.498;13.480;2023-08-21T16:27:28;28.50;99.90
14682;DHT22;7429;52.498;13.480;2023-08-21T16:30:45;28.30;99.90
14682;DHT22;7429;52.498;13.480;2023-08-21T16:34:09;28.10;99.90
14682;DHT22;7429;52.498;13.480;2023-08-21T16:38:02;27.80;99.90
14682;DHT22;7429;52.498;13.480;2023-08-21T16:41:39;27.70;99.90
14682;DHT22;7429;52.498;13.480;2023-08-21T16:45:37;27.50;99.90
14682;DHT22;7429;52.498;13.480;2023-08-21T16:49:26;27.50;99.90
14682;DHT22;7429;52.498;13.480;2023-08-21T17:17:31;26.90;99.90
14682;DHT22;7429;52.498;13.480;2023-08-21T17:21:07;26.80;99.90
14682;DHT22;7429;52.498;13.480;2023-08-21T17:24:33;26.70;99.90
14682;DHT22;7429;52.498;13.480;2023-08-21T17:28:40;26.70;99.90
14682;DHT22;7429;52.498;13.480;2023-08-21T17:32:17;26.60;99.90
14682;DHT22;7429;52.498;13.480;2023-08-21T17:35:26;26.60;99.90
14682;DHT22;7429;52.498;13.480;2023-08-21T17:38:55;26.50;99.90
14682;DHT22;7429;52.498;13.480;2023-08-21T17:42:12;26.40;99.90
14682;DHT22;7429;52.498;13.480;2023-08-21T17:45:31;26.20;99.90
14682;DHT22;7429;52.498;13.480;2023-08-21T17:48:58;26.20;99.90
14682;DHT22;7429;52.498;13.480;2023-08-21T17:52:43;26.20;99.90
14682;DHT22;7429;52.498;13.480;2023-08-21T17:56:18;26.20;99.90
14682;DHT22;7429;52.498;13.480;2023-08-21T17:59:36;26.10;99.90
14682;DHT22;7429;52.498;13.480;2023-08-21T18:03:23;25.90;99.90
14682;DHT22;7429;52.498;13.480;2023-08-21T18:06:47;25.70;99.90
14682;DHT22;7429;52.498;13.480;2023-08-21T18:10:12;25.70;99.90
14682;DHT22;7429;52.498;13.480;2023-08-21T18:13:36;25.50;99.90
14682;DHT22;7429;52.498;13.480;2023-08-21T18:17:55;25.30;99.90
14682;DHT22;7429;52.498;13.480;2023-08-21T18:21:25;25.20;99.90
14682;DHT22;7429;52.498;13.480;2023-08-21T18:25:19;25.20;99.90
14682;DHT22;7429;52.498;13.480;2023-08-21T18:29:14;25.20;99.90
14682;DHT22;7429;52.498;13.480;2023-08-21T18:32:44;25.20;99.90
14682;DHT22;7429;52.498;13.480;2023-08-21T18:35:59;25.00;99.90
14682;DHT22;7429;52.498;13.480;2023-08-21T18:39:31;25.00;99.90
14682;DHT22;7429;52.498;13.480;2023-08-21T18:42:47;24.90;99.90
14682;DHT22;7429;52.498;13.480;2023-08-21T18:46:17;24.80;99.90
14682;DHT22;7429;52.498;13.480;2023-08-21T18:50:17;24.80;99.90
14682;DHT22;7429;52.498;13.480;2023-08-21T18:53:57;24.80;99.90
14682;DHT22;7429;52.498;13.480;2023-08-21T19:04:04;24.60;99.90
14682;DHT22;7429;52.498;13.480;2023-08-21T19:07:57;24.40;99.90
14682;DHT22;7429;52.498;13.480;2023-08-21T19:11:30;24.20;99.90
14682;DHT22;7429;52.498;13.480;2023-08-21T19:16:48;24.20;99.90
14682;DHT22;7429;52.498;13.480;2023-08-21T19:41:15;23.60;99.90
14682;DHT22;7429;52.498;13.480;2023-08-21T19:44:27;23.60;99.90
14682;DHT22;7429;52.498;13.480;2023-08-21T19:47:39;23.60;99.90
14682;DHT22;7429;52.498;13.480;2023-08-21T19:51:08;23.60;99.90
14682;DHT22;7429;52.498;13.480;2023-08-21T19:54:26;23.60;99.90
14682;DHT22;7429;52.498;13.480;2023-08-21T19:57:34;23.70;99.90
14682;DHT22;7429;52.498;13.480;2023-08-21T20:00:45;23.70;99.90
14682;DHT22;7429;52.498;13.480;2023-08-21T20:03:51;23.70;99.90
14682;DHT22;7429;52.498;13.480;2023-08-21T20:06:54;23.80;99.90
14682;DHT22;7429;52.498;13.480;2023-08-21T20:10:09;23.70;99.90
14682;DHT22;7429;52.498;13.480;2023-08-21T20:13:24;23.50;99.90
14682;DHT22;7429;52.498;13.480;2023-08-21T20:16:37;23.50;99.90
14682;DHT22;7429;52.498;13.480;2023-08-21T20:19:47;23.50;99.90
14682;DHT22;7429;52.498;13.480;2023-08-21T20:22:54;23.30;99.90
14682;DHT22;7429;52.498;13.480;2023-08-21T20:25:57;23.20;99.90
14682;DHT22;7429;52.498;13.480;2023-08-21T20:29:02;23.20;99.90
14682;DHT22;7429;52.498;13.480;2023-08-21T20:32:05;23.10;99.90
14682;DHT22;7429;52.498;13.480;2023-08-21T20:35:09;23.10;99.90
14682;DHT22;7429;52.498;13.480;2023-08-21T20:38:16;23.10;99.90
14682;DHT22;7429;52.498;13.480;2023-08-21T20:41:20;23.20;99.90
14682;DHT22;7429;52.498;13.480;2023-08-21T20:44:24;23.10;99.90
14682;DHT22;7429;52.498;13.480;2023-08-21T20:47:28;23.00;99.90
14682;DHT22;7429;52.498;13.480;2023-08-21T20:50:32;22.80;99.90
14682;DHT22;7429;52.498;13.480;2023-08-21T20:53:35;22.80;99.90
14682;DHT22;7429;52.498;13.480;2023-08-21T20:56:39;22.80;99.90
14682;DHT22;7429;52.498;13.480;2023-08-21T20:59:44;22.70;99.90
14682;DHT22;7429;52.498;13.480;2023-08-21T21:02:49;22.60;99.90
14682;DHT22;7429;52.498;13.480;2023-08-21T21:05:52;22.60;99.90
14682;DHT22;7429;52.498;13.480;2023-08-21T21:08:56;22.50;99.90
14682;DHT22;7429;52.498;13.480;2023-08-21T21:12:02;22.30;99.90
14682;DHT22;7429;52.498;13.480;2023-08-21T21:15:08;22.20;99.90
14682;DHT22;7429;52.498;13.480;2023-08-21T21:18:12;22.20;99.90
14682;DHT22;7429;52.498;13.480;2023-08-21T21:21:16;22.20;99.90
14682;DHT22;7429;52.498;13.480;2023-08-21T21:24:20;22.10;99.90
14682;DHT22;7429;52.498;13.480;2023-08-21T21:27:23;22.00;99.90
14682;DHT22;7429;52.498;13.480;2023-08-21T21:30:30;22.00;99.90
14682;DHT22;7429;52.498;13.480;2023-08-21T21:33:34;22.00;99.90
14682;DHT22;7429;52.498;13.480;2023-08-21T21:36:37;21.90;99.90
14682;DHT22;7429;52.498;13.480;2023-08-21T21:39:44;22.00;99.90
14682;DHT22;7429;52.498;13.480;2023-08-21T21:42:50;22.10;99.90
14682;DHT22;7429;52.498;13.480;2023-08-21T21:45:56;22.10;99.90
14682;DHT22;7429;52.498;13.480;2023-08-21T21:49:02;22.10;99.90
14682;DHT22;7429;52.498;13.480;2023-08-21T21:52:05;22.10;99.90
14682;DHT22;7429;52.498;13.480;2023-08-21T21:55:09;22.10;99.90
14682;DHT22;7429;52.498;13.480;2023-08-21T21:58:15;22.10;99.90
14682;DHT22;7429;52.498;13.480;2023-08-21T22:01:19;22.00;99.90
14682;DHT22;7429;52.498;13.480;2023-08-21T22:04:27;21.90;99.90
14682;DHT22;7429;52.498;13.480;2023-08-21T22:07:33;21.80;99.90